Time;durP1;ratioP1;P1;durP2;ratioP2;P2;SDS_P1;SDS_P2;PMS_P1;PMS_P2;Temp;Humidity;BMP_temperature;BMP_pressure;BME280_temperature;BME280_humidity;BME280_pressure;Samples;Min_cycle;Max_cycle;Signal;HPM_P1;HPM_P2
2020/12/20 00:00:17;;;;;;;3.58;2.67;;;21.10;47.90;;;;;;5029492;28;20040;-47
2020/12/20 00:02:52;;;;;;;3.97;2.78;;;21.10;47.90;;;;;;5030246;28;20033;-57
2020/12/20 00:05:20;;;;;;;4.95;3.00;;;21.10;47.80;;;;;;5029933;28;20065;-51
2020/12/20 00:07:45;;;;;;;5.35;3.25;;;21.10;47.70;;;;;;5030262;28;20030;-52
2020/12/20 00:10:13;;;;;;;4.80;3.05;;;21.10;47.70;;;;;;5030138;28;20025;-59
2020/12/20 00:12:39;;;;;;;4.13;2.55;;;21.10;47.70;;;;;;5029639;28;20029;-41
2020/12/20 00:15:06;;;;;;;5.30;3.20;;;21.10;47.60;;;;;;5029136;28;20083;-48
2020/12/20 00:17:32;;;;;;;3.40;2.85;;;21.10;47.60;;;;;;5029505;28;20041;-39
2020/12/20 00:19:58;;;;;;;4.03;2.50;;;21.00;47.60;;;;;;5028976;28;20036;-53
2020/12/20 00:22:23;;;;;;;3.45;2.55;;;21.10;47.60;;;;;;5025172;28;20108;-48
2020/12/20 00:24:49;;;;;;;4.25;3.03;;;21.00;47.50;;;;;;5030048;28;20116;-49
2020/12/20 00:27:15;;;;;;;4.07;3.25;;;21.10;47.60;;;;;;5028211;28;20119;-57
2020/12/20 00:29:41;;;;;;;4.85;2.92;;;21.00;47.50;;;;;;5029956;28;20427;-48
2020/12/20 00:32:10;;;;;;;4.47;2.97;;;21.00;47.50;;;;;;5028021;28;20030;-49
2020/12/20 00:34:36;;;;;;;2.92;2.38;;;21.00;47.50;;;;;;5029832;28;20102;-48
2020/12/20 00:37:03;;;;;;;4.53;2.53;;;21.00;47.50;;;;;;5030136;28;20045;-53
2020/12/20 00:39:30;;;;;;;5.00;2.78;;;21.00;47.50;;;;;;5029076;28;20132;-42
2020/12/20 00:41:58;;;;;;;3.40;2.33;;;21.00;47.50;;;;;;5029858;28;20421;-48
2020/12/20 00:44:25;;;;;;;5.03;2.97;;;21.00;47.40;;;;;;5029012;28;20029;-51
2020/12/20 00:46:52;;;;;;;3.47;2.47;;;21.00;47.40;;;;;;5030144;28;20121;-46
2020/12/20 00:49:18;;;;;;;4.13;3.40;;;21.00;47.40;;;;;;5029188;28;20084;-53
2020/12/20 00:51:44;;;;;;;4.35;2.70;;;21.00;47.30;;;;;;5029797;28;20483;-49
2020/12/20 00:54:10;;;;;;;3.88;3.20;;;21.00;47.40;;;;;;5029503;28;20040;-49
2020/12/20 00:56:36;;;;;;;4.82;2.63;;;21.00;47.30;;;;;;5028788;28;20116;-51
2020/12/20 00:59:03;;;;;;;3.20;2.60;;;21.00;47.30;;;;;;5029621;28;20096;-48
2020/12/20 01:01:28;;;;;;;4.68;2.55;;;21.00;47.30;;;;;;5029823;28;20502;-48
2020/12/20 01:03:54;;;;;;;3.45;2.78;;;21.00;47.30;;;;;;5030490;28;20095;-49
2020/12/20 01:06:24;;;;;;;4.50;3.00;;;21.00;47.30;;;;;;5028769;28;20033;-41
2020/12/20 01:08:50;;;;;;;4.47;2.70;;;21.00;47.20;;;;;;5029795;28;20030;-50
2020/12/20 01:11:17;;;;;;;3.83;2.50;;;21.00;47.20;;;;;;5028908;28;20025;-50
2020/12/20 01:13:44;;;;;;;4.38;2.58;;;21.00;47.20;;;;;;5029507;28;20036;-43
2020/12/20 01:16:22;;;;;;;4.55;2.30;;;21.00;47.20;;;;;;5028560;28;20029;-48
2020/12/20 01:18:48;;;;;;;5.25;2.60;;;20.90;47.10;;;;;;5027726;28;20038;-44
2020/12/20 01:21:14;;;;;;;3.42;2.63;;;20.90;47.10;;;;;;5025310;28;20038;-55
2020/12/20 01:23:40;;;;;;;3.05;2.45;;;20.90;47.10;;;;;;5029091;28;20113;-45
2020/12/20 01:26:06;;;;;;;4.05;2.58;;;20.90;47.10;;;;;;5032100;28;20105;-46
2020/12/20 01:28:33;;;;;;;5.43;3.10;;;20.90;47.10;;;;;;5032496;28;20184;-49
2020/12/20 01:31:11;;;;;;;3.83;2.42;;;20.90;47.00;;;;;;5033403;28;20048;-48
2020/12/20 01:33:37;;;;;;;3.63;2.50;;;20.90;47.00;;;;;;5032543;28;20041;-42
2020/12/20 01:36:08;;;;;;;2.78;2.30;;;21.00;47.10;;;;;;5029209;28;20056;-49
2020/12/20 01:38:34;;;;;;;3.50;2.47;;;20.90;47.00;;;;;;5031731;28;20603;-49
2020/12/20 01:41:00;;;;;;;4.40;2.65;;;20.90;47.00;;;;;;5030371;28;20025;-48
2020/12/20 01:43:38;;;;;;;4.38;2.97;;;20.90;47.00;;;;;;5032452;28;20020;-48
2020/12/20 01:46:04;;;;;;;3.67;2.60;;;20.90;47.00;;;;;;5032735;28;20065;-48
2020/12/20 01:48:29;;;;;;;3.95;2.58;;;20.90;47.00;;;;;;5032056;28;20061;-47
2020/12/20 01:50:55;;;;;;;4.95;3.00;;;20.90;46.90;;;;;;5032941;28;20478;-55
2020/12/20 01:53:21;;;;;;;4.53;2.90;;;20.90;47.00;;;;;;5031754;28;20121;-48
2020/12/20 01:55:48;;;;;;;4.05;2.55;;;20.90;47.00;;;;;;5032797;28;20093;-53
2020/12/20 01:58:14;;;;;;;2.88;2.42;;;20.90;46.90;;;;;;5032345;28;20037;-55
2020/12/20 02:00:40;;;;;;;5.05;2.38;;;20.90;47.00;;;;;;5032541;28;20070;-41
2020/12/20 02:03:05;;;;;;;4.13;2.60;;;20.90;46.90;;;;;;5032624;28;20033;-45
2020/12/20 02:05:31;;;;;;;4.72;2.40;;;20.90;46.90;;;;;;5032245;28;20037;-38
2020/12/20 02:07:57;;;;;;;4.53;2.67;;;20.90;46.90;;;;;;5032531;28;20037;-53
2020/12/20 02:10:22;;;;;;;4.05;2.67;;;20.90;46.90;;;;;;5031289;28;20478;-48
2020/12/20 02:12:48;;;;;;;3.58;2.42;;;20.90;46.90;;;;;;5031996;28;20061;-48
2020/12/20 02:15:14;;;;;;;3.03;2.25;;;20.90;46.90;;;;;;5031951;28;20037;-56
2020/12/20 02:17:40;;;;;;;4.07;2.45;;;20.90;46.80;;;;;;5031977;28;20029;-48
2020/12/20 02:20:06;;;;;;;3.78;2.47;;;20.90;46.90;;;;;;5032258;28;20573;-49
2020/12/20 02:22:32;;;;;;;4.88;2.78;;;20.90;46.90;;;;;;5030233;28;20030;-48
2020/12/20 02:24:59;;;;;;;3.95;2.85;;;20.90;46.90;;;;;;5031956;28;20471;-52
2020/12/20 02:27:25;;;;;;;4.25;2.65;;;20.80;46.80;;;;;;5031017;28;20037;-49
2020/12/20 02:29:50;;;;;;;3.10;2.53;;;20.80;46.80;;;;;;5032341;28;20487;-48
2020/12/20 02:32:16;;;;;;;3.65;2.55;;;20.90;46.80;;;;;;5031370;28;20025;-55
2020/12/20 02:34:42;;;;;;;3.85;2.47;;;20.80;46.70;;;;;;5029190;28;20512;-48
2020/12/20 02:37:07;;;;;;;5.65;2.47;;;20.90;46.80;;;;;;5031068;28;20033;-50
2020/12/20 02:39:33;;;;;;;3.38;2.05;;;20.80;46.70;;;;;;5031351;28;20037;-51
2020/12/20 02:41:59;;;;;;;4.07;2.85;;;20.80;46.70;;;;;;5031721;28;20057;-50
2020/12/20 02:44:24;;;;;;;4.93;2.78;;;20.80;46.80;;;;;;5031132;28;20100;-49
2020/12/20 02:46:50;;;;;;;2.70;2.10;;;20.80;46.70;;;;;;5031760;28;20033;-53
2020/12/20 02:49:16;;;;;;;4.75;2.40;;;20.80;46.70;;;;;;5031456;28;20057;-55
2020/12/20 02:51:41;;;;;;;3.42;2.20;;;20.80;46.70;;;;;;5028976;28;20025;-48
2020/12/20 02:54:07;;;;;;;4.32;2.70;;;20.80;46.70;;;;;;5030996;28;20402;-58
2020/12/20 02:56:33;;;;;;;3.00;2.20;;;20.80;47.30;;;;;;5031684;28;20259;-49
2020/12/20 02:58:58;;;;;;;4.97;2.72;;;20.80;46.70;;;;;;5032901;28;20363;-48
2020/12/20 03:01:24;;;;;;;3.15;2.42;;;20.80;46.70;;;;;;5032118;28;20388;-49
2020/12/20 03:03:50;;;;;;;3.97;2.78;;;20.80;46.70;;;;;;5032296;28;20078;-48
2020/12/20 03:06:16;;;;;;;3.33;2.63;;;20.80;46.60;;;;;;5047381;28;20037;-56
2020/12/20 03:08:42;;;;;;;4.35;2.40;;;20.80;46.70;;;;;;5031197;28;20040;-41
2020/12/20 03:11:07;;;;;;;3.78;2.40;;;20.80;46.60;;;;;;5032523;28;20455;-48
2020/12/20 03:13:33;;;;;;;4.20;2.30;;;20.80;46.60;;;;;;5031556;28;20590;-48
2020/12/20 03:15:58;;;;;;;3.38;2.30;;;20.80;46.60;;;;;;5032535;28;20026;-48
2020/12/20 03:18:24;;;;;;;4.65;2.28;;;20.80;46.60;;;;;;5031763;28;20034;-47
2020/12/20 03:20:50;;;;;;;3.72;2.42;;;20.80;46.60;;;;;;5032316;28;20037;-50
2020/12/20 03:23:15;;;;;;;3.15;2.42;;;20.80;46.70;;;;;;5032160;28;20025;-55
2020/12/20 03:25:41;;;;;;;3.30;2.42;;;20.80;46.60;;;;;;5031644;28;20086;-46
2020/12/20 03:28:07;;;;;;;3.33;2.50;;;20.80;46.70;;;;;;5032320;28;20033;-48
2020/12/20 03:30:32;;;;;;;3.17;2.33;;;20.80;46.60;;;;;;5031756;28;20025;-49
2020/12/20 03:32:58;;;;;;;3.70;2.30;;;20.80;46.50;;;;;;5031912;28;20029;-49
2020/12/20 03:35:23;;;;;;;4.22;2.15;;;20.80;46.50;;;;;;5031210;28;20114;-49
2020/12/20 03:37:52;;;;;;;4.13;2.65;;;20.80;46.50;;;;;;5032339;28;20037;-48
2020/12/20 03:40:20;;;;;;;3.05;2.00;;;20.80;46.50;;;;;;5031251;28;20467;-54
2020/12/20 03:42:46;;;;;;;2.67;1.88;;;20.80;46.50;;;;;;5031740;28;20053;-52
2020/12/20 03:45:14;;;;;;;4.40;2.40;;;20.80;46.60;;;;;;5031871;28;20026;-48
2020/12/20 03:47:40;;;;;;;2.80;2.25;;;20.70;46.50;;;;;;5031394;28;20108;-48
2020/12/20 03:50:05;;;;;;;3.50;2.25;;;20.80;46.60;;;;;;5031617;28;20140;-48
2020/12/20 03:52:31;;;;;;;3.63;2.50;;;20.80;46.50;;;;;;5030963;28;20026;-48
2020/12/20 03:54:57;;;;;;;3.17;2.10;;;20.80;46.50;;;;;;5031798;28;20032;-56
2020/12/20 03:57:22;;;;;;;3.78;2.10;;;20.80;46.40;;;;;;5031148;28;20029;-48
2020/12/20 03:59:48;;;;;;;3.35;2.45;;;20.80;46.40;;;;;;5031528;28;20037;-49
2020/12/20 04:02:14;;;;;;;2.83;2.20;;;20.80;46.40;;;;;;5031596;28;20091;-57
2020/12/20 04:04:39;;;;;;;2.92;2.22;;;20.80;46.40;;;;;;5030878;28;20033;-48
2020/12/20 04:07:05;;;;;;;2.53;2.22;;;20.80;46.30;;;;;;5031542;28;20060;-51
2020/12/20 04:09:30;;;;;;;2.72;2.15;;;20.70;46.30;;;;;;5030894;28;20065;-59
2020/12/20 04:11:56;;;;;;;4.00;2.42;;;20.80;46.40;;;;;;5031467;28;20029;-48
2020/12/20 04:14:22;;;;;;;3.17;2.25;;;20.80;46.40;;;;;;5030844;28;20025;-49
2020/12/20 04:16:48;;;;;;;3.45;2.15;;;20.80;46.40;;;;;;5031044;28;20104;-49
2020/12/20 04:19:14;;;;;;;2.90;2.20;;;20.70;46.40;;;;;;5031425;28;20052;-48
2020/12/20 04:21:40;;;;;;;3.78;2.67;;;20.70;46.30;;;;;;5029937;28;20033;-48
2020/12/20 04:24:06;;;;;;;3.90;2.80;;;20.70;46.30;;;;;;5030746;28;20048;-47
2020/12/20 04:26:31;;;;;;;4.47;2.47;;;20.70;46.30;;;;;;5030665;28;20037;-48
2020/12/20 04:28:57;;;;;;;3.28;2.20;;;20.70;46.30;;;;;;5031533;28;20025;-48
2020/12/20 04:31:25;;;;;;;3.08;2.40;;;20.70;46.30;;;;;;5030590;28;21563;-48
2020/12/20 04:33:51;;;;;;;2.65;2.20;;;20.70;46.30;;;;;;5030914;28;20180;-48
2020/12/20 04:36:17;;;;;;;3.85;2.50;;;20.70;46.20;;;;;;5031358;28;20112;-55
2020/12/20 04:38:42;;;;;;;4.43;2.63;;;20.70;46.20;;;;;;5031259;28;20040;-48
2020/12/20 04:41:10;;;;;;;3.97;2.42;;;20.70;46.20;;;;;;5031432;28;20030;-50
2020/12/20 04:43:36;;;;;;;3.55;2.17;;;20.70;46.20;;;;;;5030547;28;20346;-49
2020/12/20 04:46:03;;;;;;;2.50;2.20;;;20.70;46.20;;;;;;5030851;28;20108;-48
2020/12/20 04:48:36;;;;;;;3.47;2.45;;;20.70;46.20;;;;;;5029293;28;20037;-49
2020/12/20 04:51:06;;;;;;;2.33;2.10;;;20.70;46.20;;;;;;5031420;28;20061;-51
2020/12/20 04:53:32;;;;;;;4.78;2.30;;;20.70;46.20;;;;;;5030196;28;20029;-48
2020/12/20 04:56:09;;;;;;;2.78;2.40;;;20.70;46.20;;;;;;5046930;28;20359;-49
2020/12/20 04:58:35;;;;;;;2.35;2.10;;;20.80;46.20;;;;;;5030424;28;20091;-47
2020/12/20 05:01:02;;;;;;;5.05;2.53;;;20.80;46.20;;;;;;5033005;28;20502;-49
2020/12/20 05:03:28;;;;;;;2.53;2.20;;;20.80;46.20;;;;;;5034590;28;20100;-49
2020/12/20 05:05:54;;;;;;;2.78;2.10;;;20.80;46.20;;;;;;5034401;28;20037;-48
2020/12/20 05:08:21;;;;;;;4.50;2.25;;;20.70;46.20;;;;;;5034130;28;20033;-55
2020/12/20 05:10:48;;;;;;;2.72;2.30;;;20.70;46.20;;;;;;5034897;28;20025;-48
2020/12/20 05:13:14;;;;;;;3.83;2.63;;;20.70;46.20;;;;;;5034914;28;20046;-49
2020/12/20 05:15:40;;;;;;;3.05;2.20;;;20.70;46.20;;;;;;5034047;28;20431;-49
2020/12/20 05:18:24;;;;;;;3.08;2.28;;;20.70;46.20;;;;;;5034523;28;20132;-48
2020/12/20 05:20:51;;;;;;;2.83;2.17;;;20.70;46.20;;;;;;5034497;28;20088;-48
2020/12/20 05:23:17;;;;;;;3.33;1.98;;;20.70;46.20;;;;;;5034564;28;20044;-53
2020/12/20 05:25:43;;;;;;;2.88;2.17;;;20.80;46.20;;;;;;5034045;28;20022;-48
2020/12/20 05:28:12;;;;;;;2.60;2.03;;;20.80;46.20;;;;;;5034328;28;20120;-50
2020/12/20 05:30:39;;;;;;;3.40;2.20;;;20.70;46.20;;;;;;5033826;28;20462;-48
2020/12/20 05:33:06;;;;;;;3.90;1.88;;;20.70;46.20;;;;;;5033747;28;20093;-49
2020/12/20 05:35:32;;;;;;;2.65;2.22;;;20.70;46.20;;;;;;5033709;28;20397;-47
2020/12/20 05:37:58;;;;;;;2.80;2.20;;;20.70;46.20;;;;;;5034531;28;20183;-41
2020/12/20 05:40:28;;;;;;;2.67;2.15;;;20.80;46.30;;;;;;5033563;28;20053;-47
2020/12/20 05:42:57;;;;;;;3.25;2.20;;;20.70;46.20;;;;;;5034167;28;20034;-48
2020/12/20 05:45:25;;;;;;;3.17;2.42;;;20.80;46.30;;;;;;5033487;28;20101;-47
2020/12/20 05:47:52;;;;;;;4.20;2.47;;;20.70;46.20;;;;;;5034034;28;20029;-47
2020/12/20 05:50:18;;;;;;;3.50;2.50;;;20.80;46.30;;;;;;5033075;28;20057;-55
2020/12/20 05:52:59;;;;;;;2.85;2.35;;;20.70;46.80;;;;;;5033282;28;20060;-48
2020/12/20 05:55:37;;;;;;;3.42;2.40;;;20.80;46.20;;;;;;5033352;28;20029;-48
2020/12/20 05:58:10;;;;;;;3.10;2.30;;;20.80;46.20;;;;;;5034052;28;20030;-50
2020/12/20 06:00:36;;;;;;;3.42;2.40;;;20.80;46.30;;;;;;5032950;28;20486;-49
2020/12/20 06:03:04;;;;;;;3.63;2.25;;;20.70;46.20;;;;;;5034027;28;20029;-50
2020/12/20 06:05:41;;;;;;;3.10;2.65;;;20.80;46.20;;;;;;5032689;28;20069;-48
2020/12/20 06:08:10;;;;;;;3.35;2.38;;;20.80;46.20;;;;;;5045007;28;20033;-49
2020/12/20 06:10:39;;;;;;;3.05;2.30;;;20.80;46.20;;;;;;5032818;28;20038;-48
2020/12/20 06:13:07;;;;;;;3.17;2.17;;;20.80;46.10;;;;;;5033895;28;20057;-50
2020/12/20 06:15:36;;;;;;;3.10;2.00;;;20.80;46.20;;;;;;5032795;28;20057;-38
2020/12/20 06:18:08;;;;;;;3.20;2.38;;;20.80;46.10;;;;;;5025989;28;20056;-48
2020/12/20 06:20:47;;;;;;;2.70;2.00;;;20.80;46.10;;;;;;5033052;28;21018;-50
2020/12/20 06:23:15;;;;;;;3.28;2.05;;;20.80;46.10;;;;;;5033447;28;20029;-49
2020/12/20 06:25:44;;;;;;;2.83;2.33;;;20.80;46.10;;;;;;5032530;28;20029;-48
2020/12/20 06:28:20;;;;;;;3.20;2.20;;;20.80;46.10;;;;;;5033446;28;20030;-50
2020/12/20 06:30:47;;;;;;;2.97;2.30;;;20.80;46.10;;;;;;5032757;28;20033;-51
2020/12/20 06:33:31;;;;;;;2.53;2.20;;;20.80;46.10;;;;;;5032793;28;20140;-48
2020/12/20 06:35:57;;;;;;;3.67;2.30;;;20.80;46.10;;;;;;5033295;28;20108;-50
2020/12/20 06:38:24;;;;;;;5.00;2.55;;;20.80;46.10;;;;;;5032868;28;20117;-55
2020/12/20 06:40:51;;;;;;;2.35;2.03;;;20.80;46.10;;;;;;5033199;28;20045;-49
2020/12/20 06:43:34;;;;;;;3.55;2.53;;;20.80;46.10;;;;;;5033496;28;20029;-48
2020/12/20 06:46:00;;;;;;;3.28;2.50;;;20.80;46.00;;;;;;5032870;28;20429;-44
2020/12/20 06:48:35;;;;;;;4.05;2.15;;;20.80;46.00;;;;;;5031970;28;20029;-49
2020/12/20 06:51:02;;;;;;;3.95;2.20;;;20.80;46.00;;;;;;5048240;28;20041;-54
2020/12/20 06:53:51;;;;;;;3.47;2.30;;;20.80;46.00;;;;;;5031564;28;20482;-49
2020/12/20 06:56:23;;;;;;;2.20;1.83;;;20.80;45.90;;;;;;5031847;28;20025;-47
2020/12/20 06:58:50;;;;;;;3.17;2.15;;;20.80;45.90;;;;;;5032662;28;20046;-47
2020/12/20 07:01:45;;;;;;;2.83;2.03;;;20.80;45.90;;;;;;5032994;28;20399;-39
2020/12/20 07:04:14;;;;;;;3.13;2.20;;;20.80;45.90;;;;;;5023631;28;20077;-46
2020/12/20 07:06:41;;;;;;;2.97;2.10;;;20.80;45.90;;;;;;5029692;28;20159;-46
2020/12/20 07:09:07;;;;;;;3.33;2.60;;;20.80;46.00;;;;;;5032961;28;20022;-46
2020/12/20 07:11:44;;;;;;;2.70;2.00;;;20.80;46.20;;;;;;5031298;28;20530;-46
2020/12/20 07:14:22;;;;;;;2.88;2.10;;;20.80;46.30;;;;;;5032415;28;20030;-50
2020/12/20 07:16:49;;;;;;;3.65;2.28;;;20.90;46.50;;;;;;5030780;28;20049;-46
2020/12/20 07:19:24;;;;;;;3.92;2.28;;;20.90;46.50;;;;;;5032017;28;20034;-49
2020/12/20 07:21:53;;;;;;;3.38;2.17;;;20.90;46.50;;;;;;5032278;28;20485;-46
2020/12/20 07:24:22;;;;;;;3.72;2.33;;;20.90;46.50;;;;;;5030474;28;20033;-49
2020/12/20 07:26:51;;;;;;;2.25;1.90;;;20.90;46.50;;;;;;5031841;28;20163;-63
2020/12/20 07:29:18;;;;;;;2.55;2.13;;;21.00;46.60;;;;;;5032030;28;20034;-48
2020/12/20 07:31:52;;;;;;;3.35;2.40;;;20.90;46.60;;;;;;5031496;28;20013;-50
2020/12/20 07:34:18;;;;;;;4.78;2.40;;;21.00;46.80;;;;;;5032123;28;20489;-50
2020/12/20 07:36:44;;;;;;;30.85;13.30;;;21.00;46.70;;;;;;5031241;28;20025;-45
2020/12/20 07:39:11;;;;;;;15.40;5.70;;;21.00;46.90;;;;;;5031737;28;20040;-46
2020/12/20 07:41:37;;;;;;;12.65;6.10;;;21.00;47.00;;;;;;5030154;28;20378;-50
2020/12/20 07:44:05;;;;;;;10.32;5.57;;;21.00;47.00;;;;;;5032091;28;20030;-45
2020/12/20 07:46:31;;;;;;;7.03;4.90;;;20.90;44.70;;;;;;5029761;28;20471;-47
2020/12/20 07:49:11;;;;;;;6.15;4.35;;;20.60;41.70;;;;;;5031599;28;20386;-48
2020/12/20 07:51:38;;;;;;;6.65;4.03;;;20.50;40.00;;;;;;5028129;28;20030;-55
2020/12/20 07:54:11;;;;;;;5.88;3.83;;;20.40;39.50;;;;;;5023483;28;20048;-46
2020/12/20 07:56:40;;;;;;;5.85;3.88;;;20.30;37.80;;;;;;5031212;28;20433;-47
2020/12/20 07:59:11;;;;;;;4.20;3.22;;;20.30;39.90;;;;;;5031803;28;20033;-47
2020/12/20 08:01:38;;;;;;;5.33;3.67;;;20.30;37.80;;;;;;5030782;28;20030;-48
2020/12/20 08:04:08;;;;;;;5.72;3.70;;;20.30;39.30;;;;;;5031415;28;20040;-51
2020/12/20 08:06:39;;;;;;;5.05;3.50;;;20.40;38.50;;;;;;5030608;28;20045;-45
2020/12/20 08:09:19;;;;;;;4.95;3.65;;;20.20;36.50;;;;;;5029102;28;20087;-40
2020/12/20 08:11:46;;;;;;;7.10;3.63;;;20.20;39.50;;;;;;5031749;28;20025;-47
2020/12/20 08:14:16;;;;;;;5.18;3.22;;;20.40;39.90;;;;;;5031425;28;20053;-47
2020/12/20 08:16:44;;;;;;;7.22;3.47;;;20.60;40.40;;;;;;5030507;28;20038;-48
2020/12/20 08:19:21;;;;;;;6.18;2.95;;;20.70;40.50;;;;;;5030809;28;20108;-47
2020/12/20 08:22:14;;;;;;;4.18;3.28;;;20.80;40.60;;;;;;5030019;28;20057;-44
2020/12/20 08:24:46;;;;;;;5.53;2.88;;;20.90;40.60;;;;;;5028134;28;20096;-62
2020/12/20 08:27:29;;;;;;;6.82;3.55;;;21.00;41.10;;;;;;5030261;28;20115;-49
2020/12/20 08:29:57;;;;;;;4.30;3.00;;;21.10;41.20;;;;;;5028187;28;20037;-57
2020/12/20 08:32:26;;;;;;;3.47;3.00;;;21.20;41.70;;;;;;5029178;28;20056;-68
2020/12/20 08:34:52;;;;;;;5.22;2.70;;;21.20;41.20;;;;;;5028885;28;20060;-58
2020/12/20 08:37:20;;;;;;;13.70;3.00;;;21.30;41.40;;;;;;5029797;28;20065;-47
2020/12/20 08:39:46;;;;;;;6.50;3.50;;;21.30;42.00;;;;;;5029633;28;20030;-58
2020/12/20 08:42:14;;;;;;;3.90;2.97;;;21.30;41.90;;;;;;5030125;28;20036;-59
2020/12/20 08:44:49;;;;;;;3.47;2.58;;;21.30;41.90;;;;;;5029410;28;20028;-52
2020/12/20 08:47:16;;;;;;;4.10;2.72;;;21.30;42.20;;;;;;5028670;28;20483;-48
2020/12/20 08:49:57;;;;;;;3.42;2.60;;;21.40;42.10;;;;;;5029117;28;20108;-50
2020/12/20 08:52:26;;;;;;;5.07;3.00;;;21.40;42.20;;;;;;5026581;28;20037;-44
2020/12/20 08:54:57;;;;;;;4.95;2.60;;;21.40;42.30;;;;;;5029553;28;20037;-49
2020/12/20 08:57:33;;;;;;;4.13;2.72;;;21.40;42.70;;;;;;5030061;28;20548;-59
2020/12/20 09:00:13;;;;;;;4.55;2.65;;;21.40;42.50;;;;;;5029701;28;20033;-42
2020/12/20 09:02:40;;;;;;;4.53;2.60;;;21.40;42.50;;;;;;5027561;28;20021;-54
2020/12/20 09:05:09;;;;;;;3.78;2.13;;;21.40;42.70;;;;;;5029316;28;20037;-54
2020/12/20 09:07:36;;;;;;;4.03;2.53;;;21.50;43.20;;;;;;5028018;28;20034;-53
2020/12/20 09:10:31;;;;;;;3.88;2.35;;;21.40;43.00;;;;;;5029901;28;20033;-51
2020/12/20 09:12:59;;;;;;;5.43;2.47;;;21.50;43.10;;;;;;5028417;28;20084;-58
2020/12/20 09:15:35;;;;;;;5.20;2.95;;;21.50;43.10;;;;;;5029752;28;20108;-55
2020/12/20 09:18:14;;;;;;;4.80;2.67;;;21.50;43.20;;;;;;5029311;28;20501;-48
2020/12/20 09:20:42;;;;;;;4.20;2.42;;;21.50;43.20;;;;;;5027492;28;20025;-53
2020/12/20 09:23:17;;;;;;;5.38;2.58;;;21.50;43.40;;;;;;5029178;28;20076;-50
2020/12/20 09:25:44;;;;;;;5.72;2.70;;;21.60;43.40;;;;;;5029121;28;20033;-49
2020/12/20 09:28:19;;;;;;;5.90;2.47;;;21.60;43.50;;;;;;5029753;28;20088;-44
2020/12/20 09:30:47;;;;;;;5.43;2.70;;;21.60;43.60;;;;;;5028989;28;20417;-55
2020/12/20 09:33:24;;;;;;;4.00;2.55;;;21.60;43.60;;;;;;5026824;28;20095;-50
2020/12/20 09:35:54;;;;;;;2.92;2.60;;;21.60;43.70;;;;;;5028623;28;20116;-53
2020/12/20 09:38:21;;;;;;;4.75;2.50;;;21.60;43.70;;;;;;5029263;28;20471;-49
2020/12/20 09:40:47;;;;;;;2.85;2.28;;;21.60;43.80;;;;;;5028703;28;20033;-68
2020/12/20 09:43:20;;;;;;;3.92;2.70;;;21.70;43.90;;;;;;5045431;28;20035;-51
2020/12/20 09:45:46;;;;;;;3.45;2.25;;;21.60;43.90;;;;;;5029198;28;20079;-48
2020/12/20 09:48:12;;;;;;;4.22;2.28;;;21.70;44.00;;;;;;5032861;28;20501;-53
2020/12/20 09:50:39;;;;;;;3.10;2.40;;;21.70;44.20;;;;;;5031646;28;20033;-56
2020/12/20 09:53:04;;;;;;;5.75;2.55;;;21.70;45.00;;;;;;5026323;28;20029;-48
2020/12/20 09:55:31;;;;;;;4.88;2.40;;;21.70;44.20;;;;;;5031977;28;20115;-55
2020/12/20 09:57:58;;;;;;;11.85;3.00;;;21.70;43.90;;;;;;5035285;28;20238;-47
2020/12/20 10:00:24;;;;;;;12.35;3.83;;;21.60;42.80;;;;;;5033164;28;20068;-49
2020/12/20 10:02:49;;;;;;;7.45;3.60;;;21.50;41.60;;;;;;5032096;28;20075;-48
2020/12/20 10:05:15;;;;;;;5.07;3.90;;;21.50;39.40;;;;;;5032896;28;20033;-49
2020/12/20 10:07:41;;;;;;;10.10;4.00;;;21.50;39.40;;;;;;5031528;28;20067;-51
2020/12/20 10:10:07;;;;;;;5.60;4.03;;;21.50;39.50;;;;;;5032195;28;20057;-49
2020/12/20 10:12:34;;;;;;;8.07;4.43;;;21.50;38.00;;;;;;5032875;28;20037;-47
2020/12/20 10:14:59;;;;;;;6.93;3.97;;;21.50;37.60;;;;;;5031482;28;20032;-61
2020/12/20 10:17:26;;;;;;;7.07;4.20;;;21.40;38.20;;;;;;5027018;28;20391;-59
2020/12/20 10:19:53;;;;;;;5.00;3.80;;;21.40;38.00;;;;;;5029147;28;20079;-48
2020/12/20 10:22:19;;;;;;;5.47;4.38;;;21.40;38.70;;;;;;5032675;28;20117;-48
2020/12/20 10:24:45;;;;;;;6.18;4.10;;;21.40;37.70;;;;;;5030464;28;21377;-50
2020/12/20 10:27:11;;;;;;;7.45;4.47;;;21.30;38.10;;;;;;5029819;28;20033;-47
2020/12/20 10:29:39;;;;;;;6.35;4.25;;;21.20;37.90;;;;;;5032009;28;20022;-58
2020/12/20 10:32:04;;;;;;;7.60;4.38;;;21.20;37.70;;;;;;5030841;28;20140;-65
2020/12/20 10:34:30;;;;;;;6.40;3.88;;;21.20;37.80;;;;;;5032243;28;20513;-49
2020/12/20 10:36:56;;;;;;;7.15;5.22;;;21.20;38.30;;;;;;5031015;28;20112;-52
2020/12/20 10:39:22;;;;;;;5.90;4.60;;;21.20;37.50;;;;;;5032015;28;20029;-47
2020/12/20 10:41:52;;;;;;;7.50;4.80;;;21.10;38.90;;;;;;5028017;28;20080;-48
2020/12/20 10:44:21;;;;;;;7.85;4.70;;;21.10;38.20;;;;;;5032414;28;20034;-51
2020/12/20 10:46:53;;;;;;;7.85;4.80;;;21.10;37.30;;;;;;5030964;28;20439;-56
2020/12/20 10:49:22;;;;;;;5.45;4.25;;;21.00;37.10;;;;;;5030086;28;20506;-47
2020/12/20 10:51:53;;;;;;;9.73;5.25;;;20.80;37.60;;;;;;5031296;28;20395;-49
2020/12/20 10:54:23;;;;;;;7.32;4.20;;;20.70;37.50;;;;;;5031129;28;20025;-57
2020/12/20 10:56:49;;;;;;;4.78;4.13;;;20.80;38.30;;;;;;5027265;28;20040;-47
2020/12/20 10:59:16;;;;;;;6.80;3.95;;;20.90;38.90;;;;;;5028319;28;20108;-53
2020/12/20 11:01:42;;;;;;;6.95;3.83;;;20.90;39.30;;;;;;5030425;28;20048;-50
2020/12/20 11:04:07;;;;;;;6.15;3.92;;;21.00;39.50;;;;;;5030744;28;20478;-50
2020/12/20 11:06:34;;;;;;;4.95;3.85;;;21.00;41.00;;;;;;5045654;28;20045;-45
2020/12/20 11:09:00;;;;;;;4.78;4.05;;;21.00;40.10;;;;;;5022340;28;20034;-47
2020/12/20 11:11:30;;;;;;;6.95;3.92;;;21.10;40.40;;;;;;5029343;28;20033;-48
2020/12/20 11:13:58;;;;;;;5.03;3.90;;;21.10;41.00;;;;;;5029911;28;20417;-59
2020/12/20 11:16:26;;;;;;;5.25;3.95;;;21.10;41.30;;;;;;5023969;28;20399;-61
2020/12/20 11:18:51;;;;;;;4.75;3.75;;;21.20;41.70;;;;;;5027915;28;20072;-45
2020/12/20 11:21:18;;;;;;;4.47;3.40;;;21.20;41.80;;;;;;5031013;28;20424;-51
2020/12/20 11:23:45;;;;;;;4.30;3.33;;;21.20;42.00;;;;;;5030063;28;20104;-54
2020/12/20 11:26:21;;;;;;;5.38;3.42;;;21.20;42.30;;;;;;5041373;28;20422;-58
2020/12/20 11:28:49;;;;;;;45.03;21.40;;;21.20;42.60;;;;;;5029037;28;20037;-49
2020/12/20 11:31:16;;;;;;;34.03;16.05;;;21.20;42.70;;;;;;5031036;28;20021;-42
2020/12/20 11:33:43;;;;;;;35.78;15.68;;;21.20;42.70;;;;;;5029654;28;20160;-51
2020/12/20 11:36:09;;;;;;;32.22;15.63;;;21.20;43.00;;;;;;5028687;28;20037;-39
2020/12/20 11:38:36;;;;;;;32.65;15.02;;;21.20;43.10;;;;;;5027038;28;20030;-43
2020/12/20 11:41:03;;;;;;;32.70;14.95;;;21.20;43.30;;;;;;5030427;28;20041;-49
2020/12/20 11:43:29;;;;;;;31.42;16.17;;;21.20;43.40;;;;;;5026471;28;20375;-48
2020/12/20 11:45:55;;;;;;;30.67;15.02;;;21.20;43.60;;;;;;5029455;28;20033;-41
2020/12/20 11:48:21;;;;;;;28.02;13.50;;;21.30;43.90;;;;;;5030297;28;20029;-45
2020/12/20 11:50:47;;;;;;;29.75;14.82;;;21.20;44.00;;;;;;5028819;28;20029;-52
2020/12/20 11:53:13;;;;;;;23.65;11.52;;;21.20;44.10;;;;;;5029609;28;20036;-51
2020/12/20 11:55:41;;;;;;;22.60;12.05;;;21.20;43.90;;;;;;5029917;28;20029;-62
2020/12/20 11:58:17;;;;;;;22.02;11.18;;;21.20;44.30;;;;;;5026247;28;20076;-46
2020/12/20 12:00:47;;;;;;;20.88;10.63;;;21.20;44.70;;;;;;5029516;28;20036;-41
2020/12/20 12:03:14;;;;;;;21.63;11.05;;;21.20;44.80;;;;;;5028179;28;20029;-45
2020/12/20 12:05:42;;;;;;;19.20;10.90;;;21.20;44.70;;;;;;5029783;28;20034;-47
2020/12/20 12:08:08;;;;;;;21.92;10.15;;;21.20;44.70;;;;;;5030705;28;20037;-47
2020/12/20 12:10:35;;;;;;;23.88;9.70;;;21.20;44.60;;;;;;5030489;28;20028;-47
2020/12/20 12:13:02;;;;;;;19.88;9.30;;;21.20;44.60;;;;;;5029792;28;20017;-53
2020/12/20 12:15:29;;;;;;;21.20;10.85;;;21.20;44.60;;;;;;5028060;28;20048;-48
2020/12/20 12:17:55;;;;;;;21.42;10.75;;;21.20;44.70;;;;;;5027103;28;20030;-48
2020/12/20 12:20:21;;;;;;;20.35;9.18;;;21.20;44.80;;;;;;5030544;28;20032;-50
2020/12/20 12:22:47;;;;;;;17.75;9.13;;;21.20;45.20;;;;;;5029540;28;20464;-47
2020/12/20 12:25:13;;;;;;;23.60;10.52;;;21.20;45.30;;;;;;5029563;28;20029;-47
2020/12/20 12:27:41;;;;;;;17.23;9.40;;;21.30;45.70;;;;;;5029302;28;20029;-57
2020/12/20 12:30:07;;;;;;;16.85;8.75;;;21.20;45.70;;;;;;5029928;28;20074;-47
2020/12/20 12:32:33;;;;;;;19.45;9.23;;;21.30;45.80;;;;;;5030238;28;20026;-55
2020/12/20 12:34:59;;;;;;;20.08;9.80;;;21.30;45.90;;;;;;5029084;28;20076;-47
2020/12/20 12:37:25;;;;;;;16.13;8.45;;;21.30;45.70;;;;;;5024874;28;20026;-50
2020/12/20 12:39:50;;;;;;;13.35;7.45;;;21.20;45.20;;;;;;5028604;28;20033;-47
2020/12/20 12:42:16;;;;;;;15.98;8.93;;;21.20;44.90;;;;;;5030211;28;20496;-44
2020/12/20 12:44:42;;;;;;;13.30;8.38;;;21.20;44.80;;;;;;5028967;28;20029;-52
2020/12/20 12:47:11;;;;;;;17.60;8.00;;;21.20;44.80;;;;;;5029800;28;20126;-50
2020/12/20 12:49:43;;;;;;;14.45;7.05;;;21.20;44.00;;;;;;5029862;28;20029;-63